createdAt,value
2019-03-24T00:02:23.040Z,19.33
2019-03-24T00:04:53.213Z,16.67
2019-03-24T00:07:23.002Z,28.90
2019-03-24T00:09:52.756Z,19.40
2019-03-24T00:12:22.715Z,14.50
2019-03-24T00:14:52.732Z,22.00
2019-03-24T00:17:23.137Z,18.97
2019-03-24T00:19:53.387Z,27.63
2019-03-24T00:22:23.155Z,27.70
2019-03-24T00:24:52.827Z,21.93
2019-03-24T00:27:22.615Z,18.37
2019-03-24T00:30:12.307Z,19.60
2019-03-24T00:32:42.183Z,24.60
2019-03-24T00:35:12.399Z,29.97
2019-03-24T00:37:42.327Z,18.40
2019-03-24T00:40:12.695Z,30.87
2019-03-24T00:42:42.927Z,22.60
2019-03-24T00:45:13.182Z,29.30
2019-03-24T00:47:43.417Z,25.50
2019-03-24T00:50:13.455Z,29.77
2019-03-24T00:52:43.312Z,28.60
2019-03-24T00:55:13.904Z,15.27
2019-03-24T00:57:43.794Z,21.60
2019-03-24T01:00:14.770Z,19.23
2019-03-24T01:02:44.736Z,25.17
2019-03-24T01:05:14.595Z,22.70
2019-03-24T01:07:44.336Z,21.67
2019-03-24T01:10:14.487Z,22.87
2019-03-24T01:12:44.349Z,24.73
2019-03-24T01:15:14.654Z,20.60
2019-03-24T01:17:44.317Z,26.80
2019-03-24T01:20:14.439Z,19.03
2019-03-24T01:22:44.104Z,27.83
2019-03-24T01:25:13.781Z,22.70
2019-03-24T01:27:43.540Z,18.13
2019-03-24T01:30:14.075Z,23.60
2019-03-24T01:32:44.151Z,20.60
2019-03-24T01:35:14.113Z,23.50
2019-03-24T01:37:43.873Z,19.63
2019-03-24T01:40:13.740Z,19.60
2019-03-24T01:42:43.502Z,15.20
2019-03-24T01:45:14.060Z,20.63
2019-03-24T01:47:43.721Z,24.03
2019-03-24T01:50:13.948Z,17.40
2019-03-24T01:52:43.603Z,26.27
2019-03-24T01:55:13.432Z,22.60
2019-03-24T01:57:43.312Z,18.57
2019-03-24T02:00:14.336Z,18.37
2019-03-24T02:02:44.091Z,19.10
2019-03-24T02:05:14.604Z,30.80
2019-03-24T02:07:44.696Z,20.80
2019-03-24T02:10:14.780Z,21.70
2019-03-24T02:12:44.872Z,23.73
2019-03-24T02:15:15.295Z,24.77
2019-03-24T02:17:45.269Z,19.77
2019-03-24T02:20:16.544Z,16.37
2019-03-24T02:22:46.311Z,15.67
2019-03-24T02:25:16.659Z,24.80
2019-03-24T02:27:46.320Z,24.73
2019-03-24T02:30:16.276Z,20.43
2019-03-24T02:32:46.136Z,25.50
2019-03-24T02:35:15.931Z,19.70
2019-03-24T02:37:46.099Z,19.27
2019-03-24T02:40:15.988Z,21.30
2019-03-24T02:42:45.849Z,16.80
2019-03-24T02:45:15.712Z,26.20
2019-03-24T02:47:45.474Z,21.67
2019-03-24T02:50:16.516Z,22.03
2019-03-24T02:52:47.467Z,15.90
2019-03-24T02:55:17.684Z,18.07
2019-03-24T02:57:47.843Z,20.17
2019-03-24T03:00:18.073Z,21.40
2019-03-24T03:02:47.931Z,18.83
2019-03-24T03:05:17.821Z,27.53
2019-03-24T03:07:47.907Z,19.97
2019-03-24T03:10:18.637Z,22.80
2019-03-24T03:12:49.852Z,24.73
2019-03-24T03:15:21.272Z,28.10
2019-03-24T03:17:51.299Z,24.03
2019-03-24T03:20:21.638Z,24.80
2019-03-24T03:22:51.732Z,22.83
2019-03-24T03:25:21.978Z,19.40
2019-03-24T03:27:52.172Z,18.50
2019-03-24T03:30:22.305Z,30.60
2019-03-24T03:32:52.120Z,17.90
2019-03-24T03:35:22.004Z,35.03
2019-03-24T03:37:52.044Z,21.67
2019-03-24T03:40:22.155Z,19.53
2019-03-24T03:42:52.950Z,22.27
2019-03-24T03:45:27.657Z,20.80
2019-03-24T03:47:58.143Z,16.93
2019-03-24T03:50:28.708Z,30.63
2019-03-24T03:52:58.704Z,20.00
2019-03-24T03:55:28.655Z,18.67
2019-03-24T03:57:58.643Z,36.73
2019-03-24T04:00:32.907Z,32.77
2019-03-24T04:03:03.256Z,32.20
2019-03-24T04:05:33.104Z,28.77
2019-03-24T04:08:04.479Z,31.40
2019-03-24T04:10:34.752Z,24.40
2019-03-24T04:13:04.982Z,33.27
2019-03-24T04:15:35.196Z,41.87
2019-03-24T04:18:06.749Z,21.67
2019-03-24T04:20:37.276Z,29.93
2019-03-24T04:23:07.624Z,28.43
2019-03-24T04:25:38.061Z,37.73
2019-03-24T04:28:08.052Z,24.70
2019-03-24T04:30:38.112Z,28.10
2019-03-24T04:33:08.011Z,22.97
2019-03-24T04:35:37.965Z,26.67
2019-03-24T04:38:08.046Z,27.53
2019-03-24T04:40:37.910Z,16.87
2019-03-24T04:43:07.795Z,25.03
2019-03-24T04:45:37.756Z,24.97
2019-03-24T04:48:08.716Z,32.37
2019-03-24T04:50:39.183Z,37.77
2019-03-24T04:53:09.172Z,31.00
2019-03-24T04:55:39.336Z,30.73
2019-03-24T04:58:09.527Z,30.10
2019-03-24T05:00:40.787Z,41.10
2019-03-24T05:03:11.237Z,24.43
2019-03-24T05:05:41.867Z,26.70
2019-03-24T05:08:14.483Z,42.50
2019-03-24T05:10:44.248Z,33.33
2019-03-24T05:13:14.733Z,41.50
2019-03-24T05:15:44.686Z,40.77
2019-03-24T05:18:15.308Z,44.53
2019-03-24T05:20:45.058Z,43.27
2019-03-24T05:23:15.213Z,36.03
2019-03-24T05:25:45.066Z,50.07
2019-03-24T05:28:14.951Z,80.17
2019-03-24T05:30:45.876Z,44.57
2019-03-24T05:33:15.958Z,78.27
2019-03-24T05:35:45.731Z,63.67
2019-03-24T05:38:15.518Z,26.70
2019-03-24T05:40:45.477Z,30.73
2019-03-24T05:43:15.573Z,44.00
2019-03-24T05:45:45.330Z,33.13
2019-03-24T05:48:15.631Z,38.43
2019-03-24T05:50:45.807Z,49.70
2019-03-24T05:53:15.690Z,31.00
2019-03-24T05:55:46.752Z,32.70
2019-03-24T05:58:18.151Z,42.03
2019-03-24T06:00:48.228Z,42.97
2019-03-24T06:03:18.318Z,40.37
2019-03-24T06:05:48.368Z,40.83
2019-03-24T06:08:18.150Z,40.37
2019-03-24T06:10:48.268Z,40.23
2019-03-24T06:13:18.517Z,34.40
2019-03-24T06:15:49.380Z,42.67
2019-03-24T06:18:19.360Z,42.93
2019-03-24T06:20:49.310Z,47.57
2019-03-24T06:23:19.294Z,30.07
2019-03-24T06:25:49.299Z,31.10
2019-03-24T06:28:19.633Z,32.07
2019-03-24T06:30:49.533Z,30.10
2019-03-24T06:33:19.378Z,27.50
2019-03-24T06:35:49.795Z,30.33
2019-03-24T06:38:20.304Z,30.80
2019-03-24T06:40:50.511Z,30.27
2019-03-24T06:43:20.452Z,23.97
2019-03-24T06:45:50.463Z,39.27
2019-03-24T06:48:20.490Z,14.27
2019-03-24T06:50:50.483Z,16.43
2019-03-24T06:53:20.423Z,17.87
2019-03-24T06:55:50.383Z,15.70
2019-03-24T06:58:20.300Z,13.37
2019-03-24T07:00:50.480Z,15.20
2019-03-24T07:03:20.173Z,14.97
2019-03-24T07:05:50.459Z,14.03
2019-03-24T07:08:20.616Z,12.53
2019-03-24T07:10:50.401Z,18.83
2019-03-24T07:13:21.275Z,12.27
2019-03-24T07:15:51.403Z,10.17
2019-03-24T07:18:21.058Z,12.10
2019-03-24T07:20:51.836Z,10.13
2019-03-24T07:23:22.267Z,11.93
2019-03-24T07:25:53.258Z,11.40
2019-03-24T07:28:24.896Z,10.67
2019-03-24T07:30:55.278Z,9.03
2019-03-24T07:33:25.416Z,10.17
2019-03-24T07:35:55.394Z,11.80
2019-03-24T07:38:25.251Z,13.90
2019-03-24T07:40:55.383Z,10.57
2019-03-24T07:43:25.679Z,9.97
2019-03-24T07:45:55.676Z,13.60
2019-03-24T07:48:25.818Z,11.40
2019-03-24T07:50:57.180Z,15.23
2019-03-24T07:53:27.079Z,12.07
2019-03-24T07:55:56.840Z,16.23
2019-03-24T07:58:26.811Z,18.63
2019-03-24T08:00:57.821Z,16.77
2019-03-24T08:03:28.016Z,18.67
2019-03-24T08:05:57.902Z,15.43
2019-03-24T08:08:28.210Z,15.50
2019-03-24T08:10:58.288Z,16.00
2019-03-24T08:13:28.166Z,14.43
2019-03-24T08:15:57.929Z,14.63
2019-03-24T08:18:30.073Z,18.20
2019-03-24T08:20:59.831Z,16.77
2019-03-24T08:23:29.975Z,20.33
2019-03-24T08:25:59.755Z,18.17
2019-03-24T08:28:30.292Z,17.23
2019-03-24T08:31:00.154Z,21.70
2019-03-24T08:33:30.270Z,15.23
2019-03-24T08:36:00.259Z,16.70
2019-03-24T08:38:30.946Z,17.03
2019-03-24T08:41:02.272Z,20.07
2019-03-24T08:43:33.056Z,19.33
2019-03-24T08:46:03.479Z,17.70
2019-03-24T08:48:40.834Z,15.03
2019-03-24T08:51:06.318Z,15.67
2019-03-24T08:53:37.963Z,23.87
2019-03-24T08:56:09.227Z,10.70
2019-03-24T08:58:39.098Z,17.30
2019-03-24T09:01:08.953Z,11.93
2019-03-24T09:03:38.737Z,16.93
2019-03-24T09:06:08.695Z,17.97
2019-03-24T09:08:38.674Z,18.47
2019-03-24T09:11:08.436Z,12.53
2019-03-24T09:13:38.553Z,10.33
2019-03-24T09:16:08.303Z,15.73
2019-03-24T09:18:37.981Z,12.30
2019-03-24T09:21:08.001Z,12.00
2019-03-24T09:23:39.371Z,10.13
2019-03-24T09:26:10.451Z,13.80
2019-03-24T09:28:41.839Z,10.67
2019-03-24T09:31:13.203Z,11.10
2019-03-24T09:33:42.892Z,9.30
2019-03-24T09:36:12.654Z,11.67
2019-03-24T09:38:42.747Z,19.40
2019-03-24T09:41:12.612Z,14.67
2019-03-24T09:43:42.680Z,10.80
2019-03-24T09:46:12.345Z,14.43
2019-03-24T09:48:42.130Z,12.77
2019-03-24T09:51:12.219Z,18.43
2019-03-24T09:53:42.338Z,11.80
2019-03-24T09:56:12.200Z,13.50
2019-03-24T09:58:42.189Z,8.10
2019-03-24T10:01:11.935Z,12.20
2019-03-24T10:03:41.622Z,15.27
2019-03-24T10:06:12.271Z,14.30
2019-03-24T10:08:47.053Z,12.60
2019-03-24T10:11:13.435Z,12.30
2019-03-24T10:13:43.419Z,8.83
2019-03-24T10:16:13.172Z,9.80
2019-03-24T10:18:42.858Z,15.43
2019-03-24T10:21:13.234Z,11.53
2019-03-24T10:23:44.994Z,12.90
2019-03-24T10:26:15.322Z,8.70
2019-03-24T10:28:45.348Z,12.70
2019-03-24T10:31:15.098Z,12.90
2019-03-24T10:33:45.063Z,9.30
2019-03-24T10:36:15.215Z,16.97
2019-03-24T10:38:45.095Z,17.27
2019-03-24T10:41:14.892Z,10.67
2019-03-24T10:43:44.987Z,15.43
2019-03-24T10:46:14.847Z,12.10
2019-03-24T10:48:45.273Z,11.27
2019-03-24T10:51:16.138Z,17.20
2019-03-24T10:53:45.924Z,11.63
2019-03-24T10:56:16.142Z,12.17
2019-03-24T10:58:45.818Z,11.40
2019-03-24T11:01:16.081Z,10.73
2019-03-24T11:03:45.887Z,13.50
2019-03-24T11:06:15.674Z,8.57
2019-03-24T11:08:45.507Z,9.83
2019-03-24T11:11:15.632Z,12.57
2019-03-24T11:13:45.747Z,9.70
2019-03-24T11:16:15.545Z,10.07
2019-03-24T11:18:45.370Z,12.30
2019-03-24T11:21:15.170Z,13.17
2019-03-24T11:23:45.611Z,11.20
2019-03-24T11:26:15.408Z,12.57
2019-03-24T11:28:45.084Z,9.80
2019-03-24T11:31:15.222Z,8.17
2019-03-24T11:33:44.799Z,8.73
2019-03-24T11:36:14.782Z,9.97
2019-03-24T11:38:44.430Z,12.57
2019-03-24T11:41:14.036Z,9.97
2019-03-24T11:43:43.987Z,11.67
2019-03-24T11:46:13.659Z,9.17
2019-03-24T11:48:43.318Z,8.60
2019-03-24T11:51:13.552Z,13.87
2019-03-24T11:53:43.330Z,7.20
2019-03-24T11:56:13.261Z,7.10
2019-03-24T11:58:43.257Z,10.60
2019-03-24T12:01:13.200Z,9.10
2019-03-24T12:03:42.971Z,10.13
2019-03-24T12:06:14.694Z,9.83
2019-03-24T12:08:44.585Z,14.27
2019-03-24T12:11:14.364Z,11.23
2019-03-24T12:13:44.415Z,9.43
2019-03-24T12:16:14.295Z,8.33
2019-03-24T12:18:44.431Z,9.03
2019-03-24T12:21:14.700Z,9.53
2019-03-24T12:23:44.892Z,7.03
2019-03-24T12:26:14.826Z,6.90
2019-03-24T12:28:45.012Z,7.60
2019-03-24T12:31:14.827Z,7.93
2019-03-24T12:33:45.270Z,12.90
2019-03-24T12:36:15.799Z,7.10
2019-03-24T12:38:45.915Z,9.77
2019-03-24T12:41:16.037Z,11.17
2019-03-24T12:43:45.686Z,9.43
2019-03-24T12:46:16.020Z,8.57
2019-03-24T12:48:45.942Z,9.90
2019-03-24T12:51:15.998Z,9.53
2019-03-24T12:53:46.120Z,9.40
2019-03-24T12:56:16.551Z,7.70
2019-03-24T12:58:46.599Z,9.47
2019-03-24T13:01:16.987Z,10.70
2019-03-24T13:03:46.770Z,11.20
2019-03-24T13:06:16.575Z,10.83
2019-03-24T13:08:46.334Z,10.30
2019-03-24T13:11:16.361Z,14.80
2019-03-24T13:13:46.463Z,8.83
2019-03-24T13:16:16.584Z,11.13
2019-03-24T13:18:46.798Z,13.63
2019-03-24T13:21:16.614Z,8.87
2019-03-24T13:23:46.400Z,9.53
2019-03-24T13:26:16.356Z,11.10
2019-03-24T13:28:46.554Z,10.00
2019-03-24T13:31:16.334Z,11.53
2019-03-24T13:33:46.071Z,11.50
2019-03-24T13:36:15.765Z,8.13
2019-03-24T13:38:45.585Z,9.63
2019-03-24T13:41:15.727Z,7.87
2019-03-24T13:43:46.155Z,10.00
2019-03-24T13:46:16.411Z,10.33
2019-03-24T13:48:48.021Z,8.67
2019-03-24T13:51:17.839Z,9.47
2019-03-24T13:53:47.596Z,9.50
2019-03-24T13:56:17.380Z,10.13
2019-03-24T13:58:47.998Z,9.57
2019-03-24T14:01:17.800Z,10.93
2019-03-24T14:03:48.187Z,9.40
2019-03-24T14:06:17.870Z,12.93
2019-03-24T14:08:47.624Z,11.73
2019-03-24T14:11:17.719Z,9.43
2019-03-24T14:13:47.552Z,10.93
2019-03-24T14:16:17.655Z,10.83
2019-03-24T14:18:48.006Z,8.03
2019-03-24T14:21:18.028Z,9.50
2019-03-24T14:23:48.095Z,9.10
2019-03-24T14:26:18.283Z,8.77
2019-03-24T14:28:48.327Z,14.00
2019-03-24T14:31:18.327Z,8.17
2019-03-24T14:33:48.705Z,9.40
2019-03-24T14:36:18.731Z,8.10
2019-03-24T14:38:48.756Z,8.53
2019-03-24T14:41:18.519Z,8.07
2019-03-24T14:43:48.271Z,8.73
2019-03-24T14:46:19.070Z,9.30
2019-03-24T14:48:49.002Z,11.00
2019-03-24T14:51:18.670Z,10.30
2019-03-24T14:53:48.360Z,10.43
2019-03-24T14:56:18.119Z,10.63
2019-03-24T14:58:47.774Z,9.90
2019-03-24T15:01:17.719Z,8.93
2019-03-24T15:03:47.491Z,9.00
2019-03-24T15:06:17.329Z,9.40
2019-03-24T15:08:47.123Z,10.63
2019-03-24T15:11:16.778Z,9.40
2019-03-24T15:13:46.670Z,6.70
2019-03-24T15:16:16.651Z,7.93
2019-03-24T15:18:46.859Z,7.13
2019-03-24T15:21:16.615Z,7.07
2019-03-24T15:23:46.378Z,6.17
2019-03-24T15:26:16.130Z,8.97
2019-03-24T15:28:46.506Z,5.57
2019-03-24T15:31:16.497Z,7.70
2019-03-24T15:33:46.791Z,7.70
2019-03-24T15:36:16.902Z,4.97
2019-03-24T15:38:46.684Z,6.67
2019-03-24T15:41:18.325Z,5.63
2019-03-24T15:43:47.907Z,5.80
2019-03-24T15:46:17.587Z,7.70
2019-03-24T15:48:50.092Z,6.90
2019-03-24T15:51:19.550Z,7.63
2019-03-24T15:53:49.377Z,5.53
2019-03-24T15:56:19.114Z,8.13
2019-03-24T15:58:49.055Z,4.63
2019-03-24T16:01:19.043Z,11.27
2019-03-24T16:03:48.910Z,5.50
2019-03-24T16:06:18.667Z,4.00
2019-03-24T16:08:49.074Z,5.60
2019-03-24T16:11:18.979Z,8.43
2019-03-24T16:13:48.647Z,4.70
2019-03-24T16:16:18.392Z,4.97
2019-03-24T16:18:48.359Z,4.83
2019-03-24T16:21:27.342Z,6.00
2019-03-24T16:23:49.479Z,5.70
2019-03-24T16:26:19.399Z,6.33
2019-03-24T16:28:49.428Z,6.30
2019-03-24T16:31:19.319Z,7.00
2019-03-24T16:33:49.501Z,8.30
2019-03-24T16:36:19.650Z,6.67
2019-03-24T16:38:49.434Z,7.03
2019-03-24T16:41:19.068Z,6.77
2019-03-24T16:43:48.735Z,8.17
2019-03-24T16:46:18.379Z,7.77
2019-03-24T16:48:48.050Z,7.17
2019-03-24T16:51:18.063Z,6.27
2019-03-24T16:53:47.825Z,4.90
2019-03-24T16:56:17.571Z,4.73
2019-03-24T16:58:48.148Z,3.97
2019-03-24T17:01:18.245Z,4.43
2019-03-24T17:03:47.917Z,4.90
2019-03-24T17:06:17.562Z,5.03
2019-03-24T17:08:47.653Z,3.40
2019-03-24T17:11:17.296Z,4.30
2019-03-24T17:13:47.138Z,5.13
2019-03-24T17:16:16.788Z,3.80
2019-03-24T17:18:46.800Z,3.03
2019-03-24T17:21:16.446Z,6.40
2019-03-24T17:23:46.423Z,4.40
2019-03-24T17:26:16.070Z,4.20
2019-03-24T17:28:47.081Z,3.10
2019-03-24T17:31:17.263Z,3.67
2019-03-24T17:33:47.064Z,2.53
2019-03-24T17:36:16.702Z,2.70
2019-03-24T17:38:46.754Z,3.23
2019-03-24T17:41:16.739Z,3.80
2019-03-24T17:43:47.008Z,4.03
2019-03-24T17:46:19.447Z,3.87
2019-03-24T17:48:49.255Z,5.60
2019-03-24T17:51:19.208Z,3.07
2019-03-24T17:53:48.938Z,4.40
2019-03-24T17:56:18.843Z,3.33
2019-03-24T17:58:48.899Z,4.20
2019-03-24T18:01:18.979Z,4.57
2019-03-24T18:03:48.727Z,6.33
2019-03-24T18:06:18.503Z,4.43
2019-03-24T18:08:48.224Z,4.97
2019-03-24T18:11:18.283Z,4.00
2019-03-24T18:13:48.263Z,5.60
2019-03-24T18:16:18.736Z,5.27
2019-03-24T18:18:48.611Z,5.30
2019-03-24T18:21:18.395Z,7.87
2019-03-24T18:23:49.909Z,5.20
2019-03-24T18:26:19.751Z,5.33
2019-03-24T18:28:49.727Z,5.93
2019-03-24T18:31:19.529Z,6.20
2019-03-24T18:33:49.770Z,6.40
2019-03-24T18:36:19.962Z,6.23
2019-03-24T18:38:49.702Z,4.40
2019-03-24T18:41:19.549Z,5.90
2019-03-24T18:43:49.847Z,5.23
2019-03-24T18:46:19.658Z,4.97
2019-03-24T18:48:49.427Z,6.33
2019-03-24T18:51:19.155Z,7.20
2019-03-24T18:53:48.946Z,5.70
2019-03-24T18:56:19.112Z,6.00
2019-03-24T18:58:49.299Z,6.73
2019-03-24T19:01:19.857Z,4.80
2019-03-24T19:03:49.698Z,6.73
2019-03-24T19:06:19.467Z,6.60
2019-03-24T19:08:49.219Z,7.20
2019-03-24T19:11:19.203Z,7.03
2019-03-24T19:13:49.514Z,9.40
2019-03-24T19:16:19.956Z,5.53
2019-03-24T19:18:49.748Z,7.70
2019-03-24T19:21:19.590Z,5.40
2019-03-24T19:23:49.244Z,4.87
2019-03-24T19:26:19.313Z,5.60
2019-03-24T19:28:49.331Z,4.63
2019-03-24T19:31:19.103Z,5.33
2019-03-24T19:33:48.854Z,8.03
2019-03-24T19:36:18.519Z,6.40
2019-03-24T19:38:49.315Z,5.20
2019-03-24T19:41:19.110Z,8.17
2019-03-24T19:43:48.847Z,7.83
2019-03-24T19:46:18.521Z,5.43
2019-03-24T19:48:48.267Z,7.83
2019-03-24T19:51:18.246Z,8.03
2019-03-24T19:53:48.264Z,5.20
2019-03-24T19:56:18.186Z,4.83
2019-03-24T19:58:47.866Z,5.87
2019-03-24T20:01:17.847Z,4.97
2019-03-24T20:03:48.406Z,7.30
2019-03-24T20:06:18.197Z,5.80
2019-03-24T20:08:47.843Z,5.53
2019-03-24T20:11:17.973Z,7.00
2019-03-24T20:13:48.107Z,4.97
2019-03-24T20:16:18.834Z,6.43
2019-03-24T20:18:49.050Z,5.90
2019-03-24T20:21:18.821Z,10.50
2019-03-24T20:23:48.654Z,4.93
2019-03-24T20:26:18.443Z,5.58
2019-03-24T20:28:48.604Z,6.33
2019-03-24T20:31:18.591Z,4.53
2019-03-24T20:33:48.512Z,5.83
2019-03-24T20:36:18.270Z,6.30
2019-03-24T20:38:48.018Z,6.73
2019-03-24T20:41:17.699Z,5.20
2019-03-24T20:43:47.456Z,5.53
2019-03-24T20:46:17.276Z,6.40
2019-03-24T20:48:47.170Z,4.93
2019-03-24T20:51:17.130Z,7.60
2019-03-24T20:53:47.340Z,5.80
2019-03-24T20:56:17.445Z,6.47
2019-03-24T20:58:47.583Z,7.40
2019-03-24T21:01:18.794Z,6.20
2019-03-24T21:03:48.719Z,5.20
2019-03-24T21:06:18.790Z,10.23
2019-03-24T21:08:48.462Z,5.63
2019-03-24T21:11:18.503Z,7.43
2019-03-24T21:13:48.749Z,4.33
2019-03-24T21:16:18.895Z,6.83
2019-03-24T21:18:50.983Z,9.43
2019-03-24T21:21:20.088Z,4.70
2019-03-24T21:23:49.835Z,6.33
2019-03-24T21:26:19.956Z,5.03
2019-03-24T21:28:49.815Z,6.83
2019-03-24T21:31:20.159Z,5.40
2019-03-24T21:33:49.907Z,5.20
2019-03-24T21:36:19.707Z,5.20
2019-03-24T21:38:49.467Z,4.22
2019-03-24T21:41:19.646Z,4.97
2019-03-24T21:43:49.418Z,5.30
2019-03-24T21:46:19.240Z,4.87
2019-03-24T21:48:49.226Z,8.50
2019-03-24T21:51:18.815Z,5.37
2019-03-24T21:53:48.716Z,7.83
2019-03-24T21:56:18.929Z,4.53
2019-03-24T21:58:49.058Z,5.23
2019-03-24T22:01:18.924Z,6.23
2019-03-24T22:03:49.116Z,5.20
2019-03-24T22:06:19.210Z,8.43
2019-03-24T22:08:48.871Z,8.50
2019-03-24T22:11:19.002Z,4.77
2019-03-24T22:13:48.778Z,8.10
2019-03-24T22:16:19.204Z,14.53
2019-03-24T22:18:49.151Z,5.80
2019-03-24T22:21:19.274Z,8.73
2019-03-24T22:23:52.437Z,5.30
2019-03-24T22:26:22.194Z,9.30
2019-03-24T22:28:51.869Z,6.20
2019-03-24T22:31:21.815Z,5.70
2019-03-24T22:33:52.910Z,6.27
2019-03-24T22:36:22.793Z,7.77
2019-03-24T22:38:52.982Z,7.50
2019-03-24T22:41:22.851Z,7.70
2019-03-24T22:43:52.972Z,6.33
2019-03-24T22:46:22.738Z,9.90
2019-03-24T22:48:52.726Z,6.50
2019-03-24T22:51:22.522Z,8.50
2019-03-24T22:54:03.000Z,13.20
2019-03-24T22:56:24.527Z,7.30
2019-03-24T22:58:54.207Z,6.93
2019-03-24T23:01:24.119Z,6.03
2019-03-24T23:03:54.267Z,11.33
2019-03-24T23:06:24.389Z,5.30
2019-03-24T23:08:54.603Z,7.53
2019-03-24T23:11:24.666Z,15.67
2019-03-24T23:13:54.407Z,9.17
2019-03-24T23:16:24.061Z,18.20
2019-03-24T23:18:53.807Z,5.10
2019-03-24T23:21:23.503Z,8.33
2019-03-24T23:23:53.179Z,6.13
2019-03-24T23:26:23.211Z,5.53
2019-03-24T23:28:52.880Z,5.87
2019-03-24T23:31:22.648Z,7.40
2019-03-24T23:33:52.324Z,5.93
2019-03-24T23:36:22.067Z,6.87
2019-03-24T23:38:51.715Z,9.97
2019-03-24T23:41:21.394Z,14.63
2019-03-24T23:43:51.100Z,8.07
2019-03-24T23:46:20.832Z,5.73
2019-03-24T23:48:50.647Z,7.90
2019-03-24T23:51:20.567Z,6.63
2019-03-24T23:53:50.255Z,5.67
2019-03-24T23:56:20.219Z,4.90
2019-03-24T23:58:49.908Z,6.03
